sensor_id;sensor_type;location;lat;lon;timestamp;pressure;altitude;pressure_sealevel;temperature;humidity
13695;BME280;6919;52.344;14.518;2024-03-02T00:01:52;99763.44;;;13.32;100.00
13695;BME280;6919;52.344;14.518;2024-03-02T00:04:22;99759.13;;;13.38;100.00
13695;BME280;6919;52.344;14.518;2024-03-02T00:06:52;99766.78;;;13.34;100.00
13695;BME280;6919;52.344;14.518;2024-03-02T00:09:22;99769.19;;;13.50;100.00
13695;BME280;6919;52.344;14.518;2024-03-02T00:11:50;99769.00;;;13.52;100.00
13695;BME280;6919;52.344;14.518;2024-03-02T00:14:19;99766.22;;;13.39;100.00
13695;BME280;6919;52.344;14.518;2024-03-02T00:16:47;99766.06;;;13.47;100.00
13695;BME280;6919;52.344;14.518;2024-03-02T00:19:16;99764.28;;;13.33;100.00
13695;BME280;6919;52.344;14.518;2024-03-02T00:21:45;99766.78;;;13.34;100.00
13695;BME280;6919;52.344;14.518;2024-03-02T00:24:21;99773.25;;;13.40;100.00
13695;BME280;6919;52.344;14.518;2024-03-02T00:26:49;99775.56;;;13.43;100.00
13695;BME280;6919;52.344;14.518;2024-03-02T00:29:18;99770.03;;;13.30;100.00
13695;BME280;6919;52.344;14.518;2024-03-02T00:31:48;99766.22;;;13.39;100.00
13695;BME280;6919;52.344;14.518;2024-03-02T00:34:17;99778.31;;;13.28;100.00
13695;BME280;6919;52.344;14.518;2024-03-02T00:36:47;99772.06;;;13.28;100.00
13695;BME280;6919;52.344;14.518;2024-03-02T00:39:16;99771.59;;;13.39;100.00
13695;BME280;6919;52.344;14.518;2024-03-02T00:41:45;99761.97;;;13.51;100.00
13695;BME280;6919;52.344;14.518;2024-03-02T00:44:16;99771.31;;;13.55;100.00
13695;BME280;6919;52.344;14.518;2024-03-02T00:46:48;99773.06;;;13.41;100.00
13695;BME280;6919;52.344;14.518;2024-03-02T00:49:21;99779.59;;;13.32;100.00
13695;BME280;6919;52.344;14.518;2024-03-02T00:51:53;99771.50;;;13.32;100.00
13695;BME280;6919;52.344;14.518;2024-03-02T00:54:23;99772.16;;;13.34;100.00
13695;BME280;6919;52.344;14.518;2024-03-02T00:56:54;99768.38;;;13.29;100.00
13695;BME280;6919;52.344;14.518;2024-03-02T00:59:23;99770.03;;;13.30;100.00
13695;BME280;6919;52.344;14.518;2024-03-02T01:01:52;99761.72;;;13.25;100.00
13695;BME280;6919;52.344;14.518;2024-03-02T01:04:21;99761.78;;;13.31;100.00
13695;BME280;6919;52.344;14.518;2024-03-02T01:06:50;99762.63;;;13.32;100.00
13695;BME280;6919;52.344;14.518;2024-03-02T01:09:19;99756.63;;;13.36;100.00
13695;BME280;6919;52.344;14.518;2024-03-02T01:11:47;99759.78;;;13.40;100.00
13695;BME280;6919;52.344;14.518;2024-03-02T01:14:16;99757.34;;;13.45;100.00
13695;BME280;6919;52.344;14.518;2024-03-02T01:16:44;99757.09;;;13.40;100.00
13695;BME280;6919;52.344;14.518;2024-03-02T01:19:12;99761.44;;;13.62;100.00
13695;BME280;6919;52.344;14.518;2024-03-02T01:21:42;99755.81;;;13.57;100.00
13695;BME280;6919;52.344;14.518;2024-03-02T01:24:11;99757.41;;;13.51;100.00
13695;BME280;6919;52.344;14.518;2024-03-02T01:26:40;99761.31;;;13.49;100.00
13695;BME280;6919;52.344;14.518;2024-03-02T01:29:08;99757.19;;;13.53;100.00
13695;BME280;6919;52.344;14.518;2024-03-02T01:31:36;99759.69;;;13.54;100.00
13695;BME280;6919;52.344;14.518;2024-03-02T01:34:06;99755.81;;;13.57;100.00
13695;BME280;6919;52.344;14.518;2024-03-02T01:36:35;99752.50;;;13.61;100.00
13695;BME280;6919;52.344;14.518;2024-03-02T01:39:03;99749.81;;;13.61;100.00
13695;BME280;6919;52.344;14.518;2024-03-02T01:41:37;99753.81;;;13.65;100.00
13695;BME280;6919;52.344;14.518;2024-03-02T01:44:05;99745.78;;;13.72;100.00
13695;BME280;6919;52.344;14.518;2024-03-02T01:46:33;99751.88;;;13.80;100.00
13695;BME280;6919;52.344;14.518;2024-03-02T01:49:02;99747.63;;;13.71;100.00
13695;BME280;6919;52.344;14.518;2024-03-02T01:51:31;99747.94;;;13.83;100.00
13695;BME280;6919;52.344;14.518;2024-03-02T01:53:59;99748.38;;;13.86;100.00
13695;BME280;6919;52.344;14.518;2024-03-02T01:56:28;99749.00;;;13.88;100.00
13695;BME280;6919;52.344;14.518;2024-03-02T01:58:58;99745.66;;;13.86;100.00
13695;BME280;6919;52.344;14.518;2024-03-02T02:01:26;99749.38;;;13.79;100.00
13695;BME280;6919;52.344;14.518;2024-03-02T02:03:55;99745.75;;;13.93;100.00
13695;BME280;6919;52.344;14.518;2024-03-02T02:06:23;99748.16;;;13.88;100.00
13695;BME280;6919;52.344;14.518;2024-03-02T02:08:51;99748.16;;;13.88;100.00
13695;BME280;6919;52.344;14.518;2024-03-02T02:11:20;99738.88;;;13.90;100.00
13695;BME280;6919;52.344;14.518;2024-03-02T02:13:48;99743.63;;;13.88;100.00
13695;BME280;6919;52.344;14.518;2024-03-02T02:16:18;99745.75;;;13.93;100.00
13695;BME280;6919;52.344;14.518;2024-03-02T02:18:46;99736.38;;;13.89;100.00
13695;BME280;6919;52.344;14.518;2024-03-02T02:21:15;99727.66;;;13.87;100.00
13695;BME280;6919;52.344;14.518;2024-03-02T02:23:45;99729.19;;;13.96;100.00
13695;BME280;6919;52.344;14.518;2024-03-02T02:26:15;99729.31;;;13.88;100.00
13695;BME280;6919;52.344;14.518;2024-03-02T02:28:43;99723.50;;;13.84;100.00
13695;BME280;6919;52.344;14.518;2024-03-02T02:31:14;99728.31;;;13.89;100.00
13695;BME280;6919;52.344;14.518;2024-03-02T02:33:43;99734.97;;;13.93;100.00
13695;BME280;6919;52.344;14.518;2024-03-02T02:36:11;99725.81;;;13.87;100.00
13695;BME280;6919;52.344;14.518;2024-03-02T02:38:46;99732.47;;;13.91;100.00
13695;BME280;6919;52.344;14.518;2024-03-02T02:41:16;99726.63;;;13.88;100.00
13695;BME280;6919;52.344;14.518;2024-03-02T02:43:44;99732.16;;;13.80;100.00
13695;BME280;6919;52.344;14.518;2024-03-02T02:46:12;99730.69;;;13.77;100.00
13695;BME280;6919;52.344;14.518;2024-03-02T02:48:41;99726.97;;;13.78;100.00
13695;BME280;6919;52.344;14.518;2024-03-02T02:51:09;99723.72;;;13.62;100.00
13695;BME280;6919;52.344;14.518;2024-03-02T02:53:37;99727.00;;;13.57;100.00
13695;BME280;6919;52.344;14.518;2024-03-02T02:56:09;99722.66;;;13.56;100.00
13695;BME280;6919;52.344;14.518;2024-03-02T02:58:39;99723.28;;;13.58;100.00
13695;BME280;6919;52.344;14.518;2024-03-02T03:01:08;99721.38;;;13.52;100.00
13695;BME280;6919;52.344;14.518;2024-03-02T03:03:36;99729.56;;;13.65;100.00
13695;BME280;6919;52.344;14.518;2024-03-02T03:06:04;99722.25;;;13.59;100.00
13695;BME280;6919;52.344;14.518;2024-03-02T03:08:33;99721.88;;;13.62;100.00
13695;BME280;6919;52.344;14.518;2024-03-02T03:11:01;99727.19;;;13.56;100.00
13695;BME280;6919;52.344;14.518;2024-03-02T03:13:31;99725.34;;;13.56;100.00
13695;BME280;6919;52.344;14.518;2024-03-02T03:16:00;99726.44;;;13.41;100.00
13695;BME280;6919;52.344;14.518;2024-03-02T03:18:28;99716.72;;;13.40;100.00
13695;BME280;6919;52.344;14.518;2024-03-02T03:20:56;99730.69;;;13.50;100.00
13695;BME280;6919;52.344;14.518;2024-03-02T03:23:25;99725.09;;;13.51;100.00
13695;BME280;6919;52.344;14.518;2024-03-02T03:25:53;99729.25;;;13.54;100.00
13695;BME280;6919;52.344;14.518;2024-03-02T03:28:21;99728.28;;;13.61;100.00
13695;BME280;6919;52.344;14.518;2024-03-02T03:30:51;99727.06;;;13.64;100.00
13695;BME280;6919;52.344;14.518;2024-03-02T03:33:19;99724.88;;;13.53;100.00
13695;BME280;6919;52.344;14.518;2024-03-02T03:35:47;99733.94;;;13.66;100.00
13695;BME280;6919;52.344;14.518;2024-03-02T03:38:16;99724.38;;;13.64;100.00
13695;BME280;6919;52.344;14.518;2024-03-02T03:40:44;99726.72;;;13.73;100.00
13695;BME280;6919;52.344;14.518;2024-03-02T03:43:12;99725.53;;;13.55;100.00
13695;BME280;6919;52.344;14.518;2024-03-02T03:45:41;99728.75;;;13.44;100.00
13695;BME280;6919;52.344;14.518;2024-03-02T03:48:11;99721.81;;;13.56;100.00
13695;BME280;6919;52.344;14.518;2024-03-02T03:50:39;99723.16;;;13.66;100.00
13695;BME280;6919;52.344;14.518;2024-03-02T03:53:07;99720.91;;;13.49;100.00
13695;BME280;6919;52.344;14.518;2024-03-02T03:55:36;99730.50;;;13.51;100.00
13695;BME280;6919;52.344;14.518;2024-03-02T03:58:04;99725.31;;;13.29;100.00
13695;BME280;6919;52.344;14.518;2024-03-02T04:00:32;99724.63;;;13.48;100.00
13695;BME280;6919;52.344;14.518;2024-03-02T04:03:01;99726.38;;;13.55;100.00
13695;BME280;6919;52.344;14.518;2024-03-02T04:05:30;99729.25;;;13.54;100.00
13695;BME280;6919;52.344;14.518;2024-03-02T04:07:58;99730.06;;;13.54;100.00
13695;BME280;6919;52.344;14.518;2024-03-02T04:10:27;99730.88;;;13.48;100.00
13695;BME280;6919;52.344;14.518;2024-03-02T04:12:55;99736.06;;;13.50;100.00
13695;BME280;6919;52.344;14.518;2024-03-02T04:15:24;99732.47;;;13.43;100.00
13695;BME280;6919;52.344;14.518;2024-03-02T04:17:52;99734.75;;;13.46;100.00
13695;BME280;6919;52.344;14.518;2024-03-02T04:20:20;99727.16;;;13.49;100.00
13695;BME280;6919;52.344;14.518;2024-03-02T04:22:50;99740.75;;;13.41;100.00
13695;BME280;6919;52.344;14.518;2024-03-02T04:25:18;99743.25;;;13.43;100.00
13695;BME280;6919;52.344;14.518;2024-03-02T04:27:47;99740.94;;;13.40;100.00
13695;BME280;6919;52.344;14.518;2024-03-02T04:30:15;99738.13;;;13.27;100.00
13695;BME280;6919;52.344;14.518;2024-03-02T04:32:44;99740.28;;;13.38;100.00
13695;BME280;6919;52.344;14.518;2024-03-02T04:35:13;99737.25;;;13.47;100.00
13695;BME280;6919;52.344;14.518;2024-03-02T04:37:42;99746.72;;;13.37;100.00
13695;BME280;6919;52.344;14.518;2024-03-02T04:40:12;99736.25;;;13.48;100.00
13695;BME280;6919;52.344;14.518;2024-03-02T04:42:41;99749.06;;;13.46;100.00
13695;BME280;6919;52.344;14.518;2024-03-02T04:45:10;99738.50;;;13.45;100.00
13695;BME280;6919;52.344;14.518;2024-03-02T04:47:38;99745.47;;;13.60;100.00
13695;BME280;6919;52.344;14.518;2024-03-02T04:50:07;99746.31;;;13.61;100.00
13695;BME280;6919;52.344;14.518;2024-03-02T04:52:36;99744.38;;;13.55;100.00
13695;BME280;6919;52.344;14.518;2024-03-02T04:55:05;99743.03;;;13.65;100.00
13695;BME280;6919;52.344;14.518;2024-03-02T04:57:57;99750.44;;;13.57;100.00
13695;BME280;6919;52.344;14.518;2024-03-02T05:00:26;99744.91;;;13.44;100.00
13695;BME280;6919;52.344;14.518;2024-03-02T05:02:54;99756.97;;;13.48;100.00
13695;BME280;6919;52.344;14.518;2024-03-02T05:05:23;99757.47;;;13.58;100.00
13695;BME280;6919;52.344;14.518;2024-03-02T05:07:51;99756.19;;;13.54;100.00
13695;BME280;6919;52.344;14.518;2024-03-02T05:10:19;99753.50;;;13.54;100.00
13695;BME280;6919;52.344;14.518;2024-03-02T05:12:47;99758.03;;;13.53;100.00
13695;BME280;6919;52.344;14.518;2024-03-02T05:15:25;99752.34;;;13.42;100.00
13695;BME280;6919;52.344;14.518;2024-03-02T05:17:54;99760.88;;;13.45;100.00
13695;BME280;6919;52.344;14.518;2024-03-02T05:20:24;99771.19;;;13.42;100.00
13695;BME280;6919;52.344;14.518;2024-03-02T05:22:52;99769.72;;;13.39;100.00
13695;BME280;6919;52.344;14.518;2024-03-02T05:25:20;99771.00;;;13.43;100.00
13695;BME280;6919;52.344;14.518;2024-03-02T05:27:49;99770.81;;;13.45;100.00
13695;BME280;6919;52.344;14.518;2024-03-02T05:30:17;99777.28;;;13.50;100.00
13695;BME280;6919;52.344;14.518;2024-03-02T05:32:47;99776.56;;;13.42;100.00
13695;BME280;6919;52.344;14.518;2024-03-02T05:35:15;99774.28;;;13.39;100.00
13695;BME280;6919;52.344;14.518;2024-03-02T05:37:44;99770.41;;;13.48;100.00
13695;BME280;6919;52.344;14.518;2024-03-02T05:40:12;99776.00;;;13.46;100.00
13695;BME280;6919;52.344;14.518;2024-03-02T05:42:41;99782.59;;;13.44;100.00
13695;BME280;6919;52.344;14.518;2024-03-02T05:45:10;99785.50;;;13.42;100.00
13695;BME280;6919;52.344;14.518;2024-03-02T05:47:38;99780.06;;;13.36;100.00
13695;BME280;6919;52.344;14.518;2024-03-02T05:50:08;99782.38;;;13.39;100.00
13695;BME280;6919;52.344;14.518;2024-03-02T05:52:37;99782.56;;;13.37;100.00
13695;BME280;6919;52.344;14.518;2024-03-02T05:55:06;99788.69;;;13.31;100.00
13695;BME280;6919;52.344;14.518;2024-03-02T05:57:34;99795.31;;;13.29;100.00
13695;BME280;6919;52.344;14.518;2024-03-02T06:00:17;99790.44;;;13.39;100.00
13695;BME280;6919;52.344;14.518;2024-03-02T06:02:45;99792.16;;;13.46;100.00
13695;BME280;6919;52.344;14.518;2024-03-02T06:05:15;99796.41;;;13.55;100.00
13695;BME280;6919;52.344;14.518;2024-03-02T06:07:43;99800.63;;;13.43;100.00
13695;BME280;6919;52.344;14.518;2024-03-02T06:10:12;99807.38;;;13.54;100.00
13695;BME280;6919;52.344;14.518;2024-03-02T06:12:41;99811.19;;;13.66;100.00
13695;BME280;6919;52.344;14.518;2024-03-02T06:15:10;99810.56;;;13.43;100.00
13695;BME280;6919;52.344;14.518;2024-03-02T06:17:37;99809.91;;;13.41;100.00
13695;BME280;6919;52.344;14.518;2024-03-02T06:20:07;99805.81;;;13.45;100.00
13695;BME280;6919;52.344;14.518;2024-03-02T06:22:37;99808.00;;;13.56;100.00
13695;BME280;6919;52.344;14.518;2024-03-02T06:25:06;99815.56;;;13.46;100.00
13695;BME280;6919;52.344;14.518;2024-03-02T06:27:35;99813.66;;;13.40;100.00
13695;BME280;6919;52.344;14.518;2024-03-02T06:30:05;99818.88;;;13.27;100.00
13695;BME280;6919;52.344;14.518;2024-03-02T06:32:33;99822.59;;;13.26;100.00
13695;BME280;6919;52.344;14.518;2024-03-02T06:35:03;99826.88;;;13.20;100.00
13695;BME280;6919;52.344;14.518;2024-03-02T06:37:32;99835.16;;;13.19;100.00
13695;BME280;6919;52.344;14.518;2024-03-02T06:40:02;99839.50;;;13.20;100.00
13695;BME280;6919;52.344;14.518;2024-03-02T06:42:30;99836.25;;;13.24;100.00
13695;BME280;6919;52.344;14.518;2024-03-02T06:45:01;99840.78;;;13.24;100.00
13695;BME280;6919;52.344;14.518;2024-03-02T06:47:30;99844.88;;;13.20;100.00
13695;BME280;6919;52.344;14.518;2024-03-02T06:49:58;99842.63;;;13.02;100.00
13695;BME280;6919;52.344;14.518;2024-03-02T06:52:27;99846.16;;;13.24;100.00
13695;BME280;6919;52.344;14.518;2024-03-02T06:54:55;99849.78;;;13.31;100.00
13695;BME280;6919;52.344;14.518;2024-03-02T06:57:25;99857.22;;;13.29;100.00
13695;BME280;6919;52.344;14.518;2024-03-02T06:59:53;99857.13;;;13.22;100.00
13695;BME280;6919;52.344;14.518;2024-03-02T07:02:25;99865.69;;;13.26;100.00
13695;BME280;6919;52.344;14.518;2024-03-02T07:04:54;99870.97;;;13.19;100.00
13695;BME280;6919;52.344;14.518;2024-03-02T07:07:22;99874.78;;;13.25;100.00
13695;BME280;6919;52.344;14.518;2024-03-02T07:09:50;99864.75;;;13.19;100.00
13695;BME280;6919;52.344;14.518;2024-03-02T07:12:18;99864.28;;;13.30;100.00
13695;BME280;6919;52.344;14.518;2024-03-02T07:14:48;99875.25;;;13.14;100.00
13695;BME280;6919;52.344;14.518;2024-03-02T07:17:38;99867.53;;;13.25;100.00
13695;BME280;6919;52.344;14.518;2024-03-02T07:20:07;99861.88;;;13.20;100.00
13695;BME280;6919;52.344;14.518;2024-03-02T07:22:35;99860.16;;;13.34;100.00
13695;BME280;6919;52.344;14.518;2024-03-02T07:25:07;99857.97;;;13.23;100.00
13695;BME280;6919;52.344;14.518;2024-03-02T07:27:56;99870.50;;;13.30;100.00
13695;BME280;6919;52.344;14.518;2024-03-02T07:30:26;99864.72;;;13.33;100.00
13695;BME280;6919;52.344;14.518;2024-03-02T07:32:57;99876.13;;;13.35;100.00
13695;BME280;6919;52.344;14.518;2024-03-02T07:35:26;99871.66;;;13.42;100.00
13695;BME280;6919;52.344;14.518;2024-03-02T07:37:55;99871.84;;;13.41;100.00
13695;BME280;6919;52.344;14.518;2024-03-02T07:40:23;99875.28;;;13.35;100.00
13695;BME280;6919;52.344;14.518;2024-03-02T07:42:52;99880.31;;;13.38;100.00
13695;BME280;6919;52.344;14.518;2024-03-02T07:45:20;99890.03;;;13.53;100.00
13695;BME280;6919;52.344;14.518;2024-03-02T07:47:50;99888.78;;;13.56;100.00
13695;BME280;6919;52.344;14.518;2024-03-02T07:50:19;99898.81;;;13.62;100.00
13695;BME280;6919;52.344;14.518;2024-03-02T07:52:47;99900.75;;;13.68;100.00
13695;BME280;6919;52.344;14.518;2024-03-02T07:55:15;99898.16;;;13.60;100.00
13695;BME280;6919;52.344;14.518;2024-03-02T07:57:44;99907.09;;;13.60;100.00
13695;BME280;6919;52.344;14.518;2024-03-02T08:00:13;99900.84;;;13.60;100.00
13695;BME280;6919;52.344;14.518;2024-03-02T08:02:42;99907.25;;;13.73;100.00
13695;BME280;6919;52.344;14.518;2024-03-02T08:05:12;99907.63;;;13.70;100.00
13695;BME280;6919;52.344;14.518;2024-03-02T08:07:41;99915.88;;;13.69;100.00
13695;BME280;6919;52.344;14.518;2024-03-02T08:10:10;99908.53;;;13.77;100.00
13695;BME280;6919;52.344;14.518;2024-03-02T08:12:38;99911.31;;;13.48;100.00
13695;BME280;6919;52.344;14.518;2024-03-02T08:15:07;99909.22;;;13.65;100.00
13695;BME280;6919;52.344;14.518;2024-03-02T08:17:35;99912.75;;;13.86;100.00
13695;BME280;6919;52.344;14.518;2024-03-02T08:20:07;99912.31;;;13.83;100.00
13695;BME280;6919;52.344;14.518;2024-03-02T08:22:37;99906.25;;;13.81;100.00
13695;BME280;6919;52.344;14.518;2024-03-02T08:25:07;99907.81;;;13.90;100.00
13695;BME280;6919;52.344;14.518;2024-03-02T08:27:36;99916.63;;;13.98;100.00
13695;BME280;6919;52.344;14.518;2024-03-02T08:30:07;99918.59;;;13.90;100.00
13695;BME280;6919;52.344;14.518;2024-03-02T08:32:37;99917.94;;;13.88;100.00
13695;BME280;6919;52.344;14.518;2024-03-02T08:35:06;99909.81;;;13.81;100.00
13695;BME280;6919;52.344;14.518;2024-03-02T08:37:38;99922.94;;;13.70;100.00
13695;BME280;6919;52.344;14.518;2024-03-02T08:40:08;99920.16;;;13.78;100.00
13695;BME280;6919;52.344;14.518;2024-03-02T08:42:39;99921.88;;;13.85;100.00
13695;BME280;6919;52.344;14.518;2024-03-02T08:45:09;99920.41;;;13.83;100.00
13695;BME280;6919;52.344;14.518;2024-03-02T08:47:37;99927.06;;;13.87;100.00
13695;BME280;6919;52.344;14.518;2024-03-02T08:50:07;99930.91;;;13.99;100.00
13695;BME280;6919;52.344;14.518;2024-03-02T08:52:36;99935.88;;;13.95;100.00
13695;BME280;6919;52.344;14.518;2024-03-02T08:55:07;99943.28;;;13.93;100.00
13695;BME280;6919;52.344;14.518;2024-03-02T08:57:35;99936.56;;;14.04;100.00
13695;BME280;6919;52.344;14.518;2024-03-02T09:00:06;99936.72;;;13.96;100.00
13695;BME280;6919;52.344;14.518;2024-03-02T09:02:34;99936.44;;;13.91;100.00
13695;BME280;6919;52.344;14.518;2024-03-02T09:05:04;99938.50;;;13.89;100.00
13695;BME280;6919;52.344;14.518;2024-03-02T09:07:33;99938.88;;;13.86;100.00
13695;BME280;6919;52.344;14.518;2024-03-02T09:10:01;99941.06;;;13.97;100.00
13695;BME280;6919;52.344;14.518;2024-03-02T09:12:31;99945.22;;;13.99;100.00
13695;BME280;6919;52.344;14.518;2024-03-02T09:15:01;99937.19;;;14.06;100.00
13695;BME280;6919;52.344;14.518;2024-03-02T09:17:30;99941.31;;;14.02;100.00
13695;BME280;6919;52.344;14.518;2024-03-02T09:19:59;99944.34;;;13.92;100.00
13695;BME280;6919;52.344;14.518;2024-03-02T09:22:28;99950.31;;;14.09;100.00
13695;BME280;6919;52.344;14.518;2024-03-02T09:24:57;99950.53;;;13.72;100.00
13695;BME280;6919;52.344;14.518;2024-03-02T09:27:25;99948.75;;;13.79;100.00
13695;BME280;6919;52.344;14.518;2024-03-02T09:29:55;99948.50;;;13.95;100.00
13695;BME280;6919;52.344;14.518;2024-03-02T09:32:24;99941.22;;;14.10;100.00
13695;BME280;6919;52.344;14.518;2024-03-02T09:34:52;99948.63;;;14.08;100.00
13695;BME280;6919;52.344;14.518;2024-03-02T09:37:23;99949.72;;;14.13;100.00
13695;BME280;6919;52.344;14.518;2024-03-02T09:39:51;99955.31;;;14.12;100.00
13695;BME280;6919;52.344;14.518;2024-03-02T09:42:21;99954.75;;;14.16;100.00
13695;BME280;6919;52.344;14.518;2024-03-02T09:44:50;99960.50;;;14.13;100.00
13695;BME280;6919;52.344;14.518;2024-03-02T09:47:21;99959.56;;;14.21;100.00
13695;BME280;6919;52.344;14.518;2024-03-02T09:49:49;99961.19;;;14.36;100.00
13695;BME280;6919;52.344;14.518;2024-03-02T09:52:18;99961.47;;;14.48;100.00
13695;BME280;6919;52.344;14.518;2024-03-02T09:54:48;99970.28;;;14.56;100.00
13695;BME280;6919;52.344;14.518;2024-03-02T09:57:16;99971.19;;;14.42;100.00
13695;BME280;6919;52.344;14.518;2024-03-02T09:59:45;99969.16;;;14.44;100.00
13695;BME280;6919;52.344;14.518;2024-03-02T10:02:14;99978.19;;;14.37;100.00
13695;BME280;6919;52.344;14.518;2024-03-02T10:04:44;99980.84;;;14.30;100.00
13695;BME280;6919;52.344;14.518;2024-03-02T10:07:15;99972.69;;;14.24;100.00
13695;BME280;6919;52.344;14.518;2024-03-02T10:09:46;99974.28;;;14.39;100.00
13695;BME280;6919;52.344;14.518;2024-03-02T10:12:16;99985.19;;;14.52;100.00
13695;BME280;6919;52.344;14.518;2024-03-02T10:14:46;99981.06;;;14.56;100.00
13695;BME280;6919;52.344;14.518;2024-03-02T10:17:18;99970.34;;;14.63;100.00
13695;BME280;6919;52.344;14.518;2024-03-02T10:19:47;99974.72;;;14.64;100.00
13695;BME280;6919;52.344;14.518;2024-03-02T10:22:16;99963.41;;;14.82;100.00
13695;BME280;6919;52.344;14.518;2024-03-02T10:24:45;99968.88;;;14.88;100.00
13695;BME280;6919;52.344;14.518;2024-03-02T10:27:16;99967.31;;;15.07;100.00
13695;BME280;6919;52.344;14.518;2024-03-02T10:29:46;99970.34;;;14.91;100.00
13695;BME280;6919;52.344;14.518;2024-03-02T10:32:16;99964.78;;;14.99;100.00
13695;BME280;6919;52.344;14.518;2024-03-02T10:34:47;99956.09;;;15.03;100.00
13695;BME280;6919;52.344;14.518;2024-03-02T10:37:16;99969.75;;;14.95;100.00
13695;BME280;6919;52.344;14.518;2024-03-02T10:39:46;99965.75;;;15.19;100.00
13695;BME280;6919;52.344;14.518;2024-03-02T10:42:18;99955.16;;;15.51;100.00
13695;BME280;6919;52.344;14.518;2024-03-02T10:44:49;99958.69;;;15.18;100.00
13695;BME280;6919;52.344;14.518;2024-03-02T10:47:21;99947.44;;;15.48;100.00
13695;BME280;6919;52.344;14.518;2024-03-02T10:49:54;99958.63;;;15.11;100.00
13695;BME280;6919;52.344;14.518;2024-03-02T10:52:23;99966.41;;;14.93;100.00
13695;BME280;6919;52.344;14.518;2024-03-02T10:54:51;99968.19;;;13.74;100.00
13695;BME280;6919;52.344;14.518;2024-03-02T10:57:22;99970.75;;;13.32;100.00
13695;BME280;6919;52.344;14.518;2024-03-02T10:59:57;99977.81;;;13.19;100.00
13695;BME280;6919;52.344;14.518;2024-03-02T11:02:32;99971.81;;;12.94;100.00
13695;BME280;6919;52.344;14.518;2024-03-02T11:05:06;99972.31;;;13.12;100.00
13695;BME280;6919;52.344;14.518;2024-03-02T11:07:38;99975.59;;;13.37;100.00
13695;BME280;6919;52.344;14.518;2024-03-02T11:10:09;99979.09;;;13.52;100.00
13695;BME280;6919;52.344;14.518;2024-03-02T11:12:46;99971.13;;;13.58;100.00
13695;BME280;6919;52.344;14.518;2024-03-02T11:15:18;99970.38;;;13.50;100.00
13695;BME280;6919;52.344;14.518;2024-03-02T11:17:47;99959.97;;;13.47;100.00
13695;BME280;6919;52.344;14.518;2024-03-02T11:20:18;99960.84;;;13.68;100.00
13695;BME280;6919;52.344;14.518;2024-03-02T11:22:48;99960.41;;;13.65;100.00
13695;BME280;6919;52.344;14.518;2024-03-02T11:25:27;99960.03;;;13.68;100.00
13695;BME280;6919;52.344;14.518;2024-03-02T11:28:06;99957.03;;;13.77;100.00
13695;BME280;6919;52.344;14.518;2024-03-02T11:30:52;99953.59;;;14.25;100.00
13695;BME280;6919;52.344;14.518;2024-03-02T11:33:26;99945.31;;;14.48;100.00
13695;BME280;6919;52.344;14.518;2024-03-02T11:35:58;99947.72;;;14.64;100.00
13695;BME280;6919;52.344;14.518;2024-03-02T11:38:34;99945.50;;;15.02;100.00
13695;BME280;6919;52.344;14.518;2024-03-02T11:41:06;99951.28;;;14.99;100.00
13695;BME280;6919;52.344;14.518;2024-03-02T11:43:38;99956.56;;;15.13;100.00
13695;BME280;6919;52.344;14.518;2024-03-02T11:46:07;99939.94;;;15.10;100.00
13695;BME280;6919;52.344;14.518;2024-03-02T11:48:39;99939.13;;;14.82;100.00
13695;BME280;6919;52.344;14.518;2024-03-02T11:51:11;99952.41;;;15.11;100.00
13695;BME280;6919;52.344;14.518;2024-03-02T11:53:40;99937.91;;;15.52;100.00
13695;BME280;6919;52.344;14.518;2024-03-02T11:56:10;99943.56;;;15.70;100.00
13695;BME280;6919;52.344;14.518;2024-03-02T11:58:41;99937.41;;;16.02;100.00
13695;BME280;6919;52.344;14.518;2024-03-02T12:01:10;99939.09;;;16.16;100.00
13695;BME280;6919;52.344;14.518;2024-03-02T12:03:40;99936.41;;;16.16;100.00
13695;BME280;6919;52.344;14.518;2024-03-02T12:06:11;99938.66;;;16.00;100.00
13695;BME280;6919;52.344;14.518;2024-03-02T12:08:41;99941.53;;;15.79;100.00
13695;BME280;6919;52.344;14.518;2024-03-02T12:11:14;99943.47;;;16.04;100.00
13695;BME280;6919;52.344;14.518;2024-03-02T12:13:52;99939.44;;;15.81;100.00
13695;BME280;6919;52.344;14.518;2024-03-02T12:16:24;99937.81;;;15.93;100.00
13695;BME280;6919;52.344;14.518;2024-03-02T12:18:52;99934.06;;;15.87;100.00
13695;BME280;6919;52.344;14.518;2024-03-02T12:21:22;99927.19;;;15.91;100.00
13695;BME280;6919;52.344;14.518;2024-03-02T12:23:51;99929.72;;;15.99;100.00
13695;BME280;6919;52.344;14.518;2024-03-02T12:26:20;99932.44;;;16.25;100.00
13695;BME280;6919;52.344;14.518;2024-03-02T12:28:48;99936.00;;;16.19;100.00
13695;BME280;6919;52.344;14.518;2024-03-02T12:31:17;99938.72;;;16.39;100.00
13695;BME280;6919;52.344;14.518;2024-03-02T12:33:46;99929.59;;;16.53;100.00
13695;BME280;6919;52.344;14.518;2024-03-02T12:36:15;99931.22;;;16.80;100.00
13695;BME280;6919;52.344;14.518;2024-03-02T12:38:45;99922.50;;;16.78;100.00
13695;BME280;6919;52.344;14.518;2024-03-02T12:41:15;99929.38;;;16.61;100.00
13695;BME280;6919;52.344;14.518;2024-03-02T12:43:43;99921.47;;;16.59;100.00
13695;BME280;6919;52.344;14.518;2024-03-02T12:46:12;99926.22;;;16.70;100.00
13695;BME280;6919;52.344;14.518;2024-03-02T12:48:40;99926.88;;;16.72;100.00
13695;BME280;6919;52.344;14.518;2024-03-02T12:51:09;99928.94;;;16.70;100.00
13695;BME280;6919;52.344;14.518;2024-03-02T12:53:37;99935.41;;;16.63;100.00
13695;BME280;6919;52.344;14.518;2024-03-02T12:56:08;99938.72;;;16.78;100.00
13695;BME280;6919;52.344;14.518;2024-03-02T12:58:40;99930.34;;;17.05;100.00
13695;BME280;6919;52.344;14.518;2024-03-02T13:01:09;99933.03;;;17.18;100.00
13695;BME280;6919;52.344;14.518;2024-03-02T13:03:38;99927.38;;;17.26;100.00